createdAt,value
2022-08-01T00:02:47.597Z,99154.59
2022-08-01T00:08:49.766Z,99149.69
2022-08-01T00:14:51.840Z,99146.69
2022-08-01T00:20:53.933Z,99145.03
2022-08-01T00:26:55.920Z,99146.13
2022-08-01T00:32:57.946Z,99139.06
2022-08-01T00:38:59.911Z,99141.78
2022-08-01T00:45:01.916Z,99128.41
2022-08-01T00:51:06.393Z,99129.00
2022-08-01T00:57:10.120Z,99118.09
2022-08-01T01:03:12.817Z,99129.00
2022-08-01T01:09:41.106Z,99127.06
2022-08-01T01:16:03.260Z,99118.31
2022-08-01T01:22:46.744Z,99112.31
2022-08-01T01:29:30.137Z,99121.84
2022-08-01T01:35:58.991Z,99118.91
2022-08-01T01:42:02.726Z,99116.13
2022-08-01T01:48:07.207Z,99114.47
2022-08-01T01:54:10.816Z,99122.31
2022-08-01T02:00:15.508Z,99120.41
2022-08-01T02:06:17.730Z,99126.38
2022-08-01T02:12:22.678Z,99122.88
2022-08-01T02:18:25.005Z,99127.63
2022-08-01T02:24:48.068Z,99135.25
2022-08-01T02:30:51.362Z,99128.19
2022-08-01T02:36:57.162Z,99131.31
2022-08-01T02:43:03.069Z,99124.81
2022-08-01T02:49:10.064Z,99137.34
2022-08-01T02:55:14.989Z,99131.84
2022-08-01T03:01:19.334Z,99133.28
2022-08-01T03:07:24.962Z,99144.44
2022-08-01T03:13:37.712Z,99143.13
2022-08-01T03:19:41.839Z,99143.63
2022-08-01T03:25:45.631Z,99141.56
2022-08-01T03:31:48.895Z,99152.84
2022-08-01T03:38:15.310Z,99155.94
2022-08-01T03:44:23.936Z,99149.13
2022-08-01T03:50:27.894Z,99139.50
2022-08-01T03:56:33.009Z,99152.47
2022-08-01T04:02:37.331Z,99151.19
2022-08-01T04:08:41.168Z,99154.56
2022-08-01T04:14:43.151Z,99157.28
2022-08-01T04:20:47.093Z,99175.22
2022-08-01T04:26:51.562Z,99174.22
2022-08-01T04:32:58.572Z,99174.00
2022-08-01T04:39:02.373Z,99183.78
2022-08-01T04:45:06.336Z,99184.53
2022-08-01T04:51:16.597Z,99195.22
2022-08-01T04:57:18.569Z,99205.97
2022-08-01T05:03:20.636Z,99217.19
2022-08-01T05:09:22.608Z,99220.38
2022-08-01T05:15:24.777Z,99225.34
2022-08-01T05:21:27.349Z,99222.94
2022-08-01T05:27:29.342Z,99226.00
2022-08-01T05:33:33.166Z,99230.31
2022-08-01T05:39:35.300Z,99232.91
2022-08-01T05:45:37.888Z,99233.06
2022-08-01T05:51:39.877Z,99233.09
2022-08-01T05:57:41.832Z,99239.69
2022-08-01T06:03:44.067Z,99250.44
2022-08-01T06:09:46.004Z,99241.91
2022-08-01T06:15:48.857Z,99252.84
2022-08-01T06:21:50.820Z,99255.34
2022-08-01T06:27:52.755Z,99257.22
2022-08-01T06:33:54.769Z,99258.31
2022-08-01T06:39:57.079Z,99267.72
2022-08-01T06:45:59.032Z,99267.94
2022-08-01T06:52:01.122Z,99277.66
2022-08-01T06:58:03.361Z,99274.50
2022-08-01T07:04:06.341Z,99272.69
2022-08-01T07:10:09.684Z,99275.13
2022-08-01T07:16:11.681Z,99271.81
2022-08-01T07:22:15.058Z,99275.41
2022-08-01T07:28:25.625Z,99285.53
2022-08-01T07:34:27.648Z,99283.00
2022-08-01T07:40:29.690Z,99283.78
2022-08-01T07:46:31.895Z,99281.59
2022-08-01T07:52:34.359Z,99292.63
2022-08-01T07:58:36.501Z,99303.00
2022-08-01T08:04:38.503Z,99299.97
2022-08-01T08:10:40.586Z,99296.16
2022-08-01T08:16:44.186Z,99309.66
2022-08-01T08:22:46.189Z,99315.00
2022-08-01T08:28:48.268Z,99314.69
2022-08-01T08:34:50.287Z,99312.75
2022-08-01T08:40:53.365Z,99317.16
2022-08-01T08:46:58.735Z,99324.25
2022-08-01T08:53:02.260Z,99330.00
2022-08-01T08:59:08.921Z,99330.56
2022-08-01T09:05:17.450Z,99334.00
2022-08-01T09:11:23.028Z,99336.53
2022-08-01T09:17:25.338Z,99347.38
2022-08-01T09:23:40.719Z,99346.56
2022-08-01T09:30:17.116Z,99353.13
2022-08-01T09:36:25.140Z,99352.19
2022-08-01T09:42:29.214Z,99361.22
2022-08-01T09:48:33.624Z,99363.88
2022-08-01T09:54:35.615Z,99379.28
2022-08-01T10:00:45.391Z,99380.22
2022-08-01T10:06:53.741Z,99393.03
2022-08-01T10:13:00.622Z,99392.88
2022-08-01T10:19:07.180Z,99395.88
2022-08-01T10:25:19.063Z,99397.34
2022-08-01T10:31:41.211Z,99392.75
2022-08-01T10:37:57.522Z,99393.91
2022-08-01T10:44:00.326Z,99382.25
2022-08-01T10:50:30.820Z,99379.94
2022-08-01T10:56:49.207Z,99380.72
2022-08-01T11:03:04.475Z,99371.94
2022-08-01T11:09:36.050Z,99367.75
2022-08-01T11:15:50.044Z,99367.44
2022-08-01T11:21:59.248Z,99370.41
2022-08-01T11:28:28.645Z,99371.19
2022-08-01T11:34:57.319Z,99379.22
2022-08-01T11:41:15.486Z,99385.28
2022-08-01T11:47:17.980Z,99382.94
2022-08-01T11:53:24.053Z,99385.31
2022-08-01T11:59:29.029Z,99380.78
2022-08-01T12:05:44.874Z,99362.69
2022-08-01T12:11:47.582Z,99362.97
2022-08-01T12:17:59.914Z,99375.28
2022-08-01T12:24:03.677Z,99370.94
2022-08-01T12:30:15.437Z,99374.56
2022-08-01T12:36:29.811Z,99372.81
2022-08-01T12:42:32.840Z,99363.88
2022-08-01T12:48:34.974Z,99387.75
2022-08-01T12:55:12.246Z,99381.47
2022-08-01T13:01:14.678Z,99381.09
2022-08-01T13:07:16.927Z,99380.09
2022-08-01T13:13:28.146Z,99380.91
2022-08-01T13:19:48.094Z,99391.72
2022-08-01T13:25:56.509Z,99385.97
2022-08-01T13:32:00.101Z,99384.28
2022-08-01T13:38:02.044Z,99379.69
2022-08-01T13:44:04.159Z,99392.31
2022-08-01T13:50:06.632Z,99383.84
2022-08-01T13:56:08.645Z,99382.16
2022-08-01T14:02:10.770Z,99396.47
2022-08-01T14:08:13.050Z,99409.44
2022-08-01T14:14:16.581Z,99403.03
2022-08-01T14:20:20.668Z,99417.78
2022-08-01T14:26:22.729Z,99417.63
2022-08-01T14:32:28.540Z,99415.28
2022-08-01T14:38:32.472Z,99415.81
2022-08-01T14:44:36.067Z,99421.53
2022-08-01T14:50:38.276Z,99437.69
2022-08-01T14:56:40.313Z,99446.16
2022-08-01T15:02:43.166Z,99448.06
2022-08-01T15:08:45.673Z,99445.31
2022-08-01T15:14:51.381Z,99442.34
2022-08-01T15:20:53.357Z,99441.25
2022-08-01T15:26:55.405Z,99439.38
2022-08-01T15:32:57.371Z,99434.53
2022-08-01T15:38:59.332Z,99447.72
2022-08-01T15:45:02.032Z,99458.53
2022-08-01T15:51:04.115Z,99462.25
2022-08-01T15:57:06.208Z,99470.28
2022-08-01T16:03:10.165Z,99468.09
2022-08-01T16:09:19.108Z,99466.91
2022-08-01T16:15:21.663Z,99481.56
2022-08-01T16:21:25.032Z,99472.72
2022-08-01T16:27:27.647Z,99468.38
2022-08-01T16:33:51.534Z,99464.69
2022-08-01T16:39:52.934Z,99454.56
2022-08-01T16:45:58.330Z,99448.03
2022-08-01T16:52:00.389Z,99446.28
2022-08-01T16:58:02.911Z,99452.72
2022-08-01T17:04:05.117Z,99448.22
2022-08-01T17:10:08.878Z,99441.91
2022-08-01T17:16:11.571Z,99449.09
2022-08-01T17:22:13.741Z,99446.28
2022-08-01T17:28:15.840Z,99454.75
2022-08-01T17:34:17.869Z,99449.63
2022-08-01T17:40:39.622Z,99452.38
2022-08-01T17:46:41.824Z,99448.19
2022-08-01T17:52:43.931Z,99454.91
2022-08-01T17:58:51.836Z,99461.09
2022-08-01T18:04:54.434Z,99454.91
2022-08-01T18:10:57.646Z,99454.75
2022-08-01T18:16:59.601Z,99457.75
2022-08-01T18:23:01.583Z,99458.81
2022-08-01T18:29:03.592Z,99463.84
2022-08-01T18:35:14.026Z,99472.16
2022-08-01T18:41:16.401Z,99470.19
2022-08-01T18:47:18.733Z,99486.09
2022-08-01T18:53:22.283Z,99477.22
2022-08-01T18:59:24.240Z,99480.63
2022-08-01T19:05:26.210Z,99489.22
2022-08-01T19:11:28.248Z,99494.06
2022-08-01T19:17:30.340Z,99497.81
2022-08-01T19:23:54.514Z,99500.78
2022-08-01T19:30:01.120Z,99511.25
2022-08-01T19:36:03.761Z,99526.28
2022-08-01T19:42:06.235Z,99517.97
2022-08-01T19:48:08.409Z,99519.34
2022-08-01T19:54:12.433Z,99528.22
2022-08-01T20:00:27.698Z,99544.38
2022-08-01T20:06:31.221Z,99546.47
2022-08-01T20:12:34.552Z,99537.66
2022-08-01T20:18:36.559Z,99550.41
2022-08-01T20:24:43.436Z,99552.75
2022-08-01T20:30:46.244Z,99559.16
2022-08-01T20:36:56.642Z,99563.25
2022-08-01T20:42:59.707Z,99567.59
2022-08-01T20:49:01.840Z,99555.56
2022-08-01T20:55:05.406Z,99572.19
2022-08-01T21:01:09.361Z,99569.63
2022-08-01T21:07:28.001Z,99569.53
2022-08-01T21:13:45.671Z,99585.81
2022-08-01T21:19:54.895Z,99582.38
2022-08-01T21:26:00.178Z,99597.25
2022-08-01T21:32:14.499Z,99604.31
2022-08-01T21:38:18.171Z,99611.75
2022-08-01T21:44:28.969Z,99614.81
2022-08-01T21:50:54.766Z,99598.78
2022-08-01T21:57:17.280Z,99594.03
2022-08-01T22:03:35.903Z,99608.78
2022-08-01T22:09:43.408Z,99599.59
2022-08-01T22:15:45.507Z,99598.09
2022-08-01T22:21:48.406Z,99596.28
2022-08-01T22:28:05.487Z,99593.59
2022-08-01T22:34:14.102Z,99574.38
2022-08-01T22:40:16.158Z,99567.03
2022-08-01T22:46:50.684Z,99567.84
2022-08-01T22:53:13.511Z,99569.72
2022-08-01T22:59:26.703Z,99569.47
2022-08-01T23:06:07.107Z,99567.50
2022-08-01T23:12:10.759Z,99569.97
2022-08-01T23:18:13.973Z,99578.75
2022-08-01T23:24:16.501Z,99580.06
2022-08-01T23:30:18.590Z,99585.72
2022-08-01T23:36:20.558Z,99586.63
2022-08-01T23:42:22.622Z,99589.34
2022-08-01T23:48:24.609Z,99591.34
2022-08-01T23:54:27.621Z,99582.19
